createdAt,value
2022-12-09T00:00:57.878Z,0.80
2022-12-09T00:03:24.782Z,1.50
2022-12-09T00:05:51.713Z,1.43
2022-12-09T00:08:18.471Z,1.20
2022-12-09T00:10:45.470Z,1.60
2022-12-09T00:13:12.279Z,1.10
2022-12-09T00:15:42.767Z,1.37
2022-12-09T00:18:10.621Z,1.67
2022-12-09T00:20:37.244Z,1.20
2022-12-09T00:23:04.044Z,1.80
2022-12-09T00:25:30.765Z,1.10
2022-12-09T00:27:57.660Z,1.23
2022-12-09T00:30:24.396Z,1.33
2022-12-09T00:32:51.265Z,1.67
2022-12-09T00:35:17.967Z,1.30
2022-12-09T00:37:44.808Z,1.83
2022-12-09T00:40:12.329Z,1.07
2022-12-09T00:42:39.722Z,1.27
2022-12-09T00:45:07.941Z,1.07
2022-12-09T00:47:35.264Z,1.93
2022-12-09T00:50:02.506Z,1.03
2022-12-09T00:52:29.385Z,1.00
2022-12-09T00:54:56.058Z,1.37
2022-12-09T00:57:22.847Z,1.23
2022-12-09T00:59:49.530Z,1.10
2022-12-09T01:02:16.260Z,1.30
2022-12-09T01:04:43.180Z,1.50
2022-12-09T01:07:10.900Z,1.80
2022-12-09T01:09:37.761Z,1.20
2022-12-09T01:12:05.161Z,1.10
2022-12-09T01:14:32.011Z,1.33
2022-12-09T01:16:58.692Z,1.30
2022-12-09T01:19:25.369Z,1.20
2022-12-09T01:21:55.546Z,0.90
2022-12-09T01:24:23.053Z,1.30
2022-12-09T01:26:49.806Z,1.30
2022-12-09T01:29:16.475Z,2.10
2022-12-09T01:31:43.535Z,0.97
2022-12-09T01:34:10.337Z,1.10
2022-12-09T01:36:37.067Z,1.83
2022-12-09T01:39:04.140Z,1.67
2022-12-09T01:41:30.824Z,1.50
2022-12-09T01:44:18.315Z,1.20
2022-12-09T01:46:46.183Z,1.43
2022-12-09T01:49:19.611Z,1.67
2022-12-09T01:51:52.875Z,1.63
2022-12-09T01:54:19.826Z,1.23
2022-12-09T01:56:46.553Z,1.73
2022-12-09T01:59:15.177Z,1.30
2022-12-09T02:01:46.101Z,2.10
2022-12-09T02:04:13.045Z,1.03
2022-12-09T02:06:40.387Z,1.40
2022-12-09T02:09:08.090Z,1.63
2022-12-09T02:11:46.184Z,1.60
2022-12-09T02:14:22.358Z,2.03
2022-12-09T02:17:05.277Z,1.60
2022-12-09T02:19:51.178Z,1.60
2022-12-09T02:22:24.059Z,1.63
2022-12-09T02:25:03.355Z,1.47
2022-12-09T02:27:43.324Z,1.60
2022-12-09T02:30:17.671Z,2.00
2022-12-09T02:33:22.907Z,1.20
2022-12-09T02:36:01.544Z,2.20
2022-12-09T02:38:32.474Z,1.87
2022-12-09T02:41:04.291Z,1.70
2022-12-09T02:43:35.893Z,1.53
2022-12-09T02:46:05.406Z,1.30
2022-12-09T02:48:43.980Z,1.40
2022-12-09T02:51:17.116Z,1.97
2022-12-09T02:53:46.707Z,1.73
2022-12-09T02:56:15.635Z,1.23
2022-12-09T02:58:42.261Z,1.53
2022-12-09T03:02:06.490Z,1.43
2022-12-09T03:04:33.375Z,1.17
2022-12-09T03:07:32.157Z,1.30
2022-12-09T03:10:11.959Z,1.87
2022-12-09T03:12:43.336Z,1.43
2022-12-09T03:15:12.887Z,1.83
2022-12-09T03:17:43.586Z,1.60
2022-12-09T03:20:17.363Z,1.80
2022-12-09T03:22:46.389Z,0.97
2022-12-09T03:25:19.462Z,1.47
2022-12-09T03:28:07.930Z,1.47
2022-12-09T03:30:39.317Z,2.47
2022-12-09T03:33:07.777Z,1.27
2022-12-09T03:35:39.167Z,1.40
2022-12-09T03:38:10.273Z,1.57
2022-12-09T03:40:38.761Z,1.50
2022-12-09T03:43:16.373Z,1.80
2022-12-09T03:45:43.818Z,2.13
2022-12-09T03:48:11.603Z,1.30
2022-12-09T03:50:56.724Z,1.20
2022-12-09T03:53:29.753Z,1.53
2022-12-09T03:56:17.840Z,1.87
2022-12-09T03:58:47.633Z,2.17
2022-12-09T04:01:15.373Z,1.83
2022-12-09T04:03:46.224Z,1.20
2022-12-09T04:06:13.194Z,1.57
2022-12-09T04:08:40.085Z,1.90
2022-12-09T04:11:06.919Z,1.37
2022-12-09T04:13:33.736Z,1.23
2022-12-09T04:16:00.582Z,1.63
2022-12-09T04:18:28.003Z,1.63
2022-12-09T04:20:55.033Z,2.03
2022-12-09T04:23:22.320Z,1.50
2022-12-09T04:25:49.450Z,2.03
2022-12-09T04:28:16.174Z,1.90
2022-12-09T04:30:47.047Z,2.10
2022-12-09T04:33:13.990Z,1.67
2022-12-09T04:35:40.772Z,1.63
2022-12-09T04:38:07.741Z,1.73
2022-12-09T04:40:34.781Z,2.67
2022-12-09T04:43:01.496Z,1.57
2022-12-09T04:45:28.171Z,2.17
2022-12-09T04:47:55.102Z,2.53
2022-12-09T04:50:21.929Z,1.97
2022-12-09T04:52:48.880Z,1.87
2022-12-09T04:55:16.109Z,2.40
2022-12-09T04:57:43.098Z,1.40
2022-12-09T05:00:11.309Z,1.83
2022-12-09T05:02:38.330Z,2.53
2022-12-09T05:05:05.849Z,2.07
2022-12-09T05:07:32.944Z,2.17
2022-12-09T05:09:59.810Z,2.47
2022-12-09T05:12:27.038Z,2.00
2022-12-09T05:14:54.082Z,2.20
2022-12-09T05:17:21.099Z,2.20
2022-12-09T05:19:48.030Z,2.10
2022-12-09T05:22:17.825Z,2.37
2022-12-09T05:24:45.117Z,2.20
2022-12-09T05:27:12.096Z,2.37
2022-12-09T05:29:39.076Z,2.03
2022-12-09T05:32:06.441Z,2.83
2022-12-09T05:34:33.711Z,2.50
2022-12-09T05:37:00.742Z,1.70
2022-12-09T05:39:27.478Z,2.13
2022-12-09T05:41:54.402Z,2.20
2022-12-09T05:44:21.497Z,2.80
2022-12-09T05:46:48.552Z,2.13
2022-12-09T05:49:15.475Z,1.53
2022-12-09T05:51:42.134Z,2.00
2022-12-09T05:54:09.016Z,2.17
2022-12-09T05:56:36.300Z,3.00
2022-12-09T05:59:03.315Z,1.60
2022-12-09T06:01:30.204Z,2.20
2022-12-09T06:03:57.918Z,1.60
2022-12-09T06:06:31.405Z,1.90
2022-12-09T06:09:00.684Z,2.47
2022-12-09T06:11:28.313Z,2.40
2022-12-09T06:13:56.082Z,2.97
2022-12-09T06:16:23.369Z,1.77
2022-12-09T06:18:51.256Z,3.33
2022-12-09T06:21:19.292Z,1.90
2022-12-09T06:23:46.951Z,1.83
2022-12-09T06:26:26.009Z,2.40
2022-12-09T06:28:54.184Z,2.27
2022-12-09T06:31:21.664Z,1.97
2022-12-09T06:33:58.032Z,2.77
2022-12-09T06:36:27.229Z,2.50
2022-12-09T06:38:54.191Z,1.70
2022-12-09T06:41:21.280Z,2.03
2022-12-09T06:43:48.275Z,2.33
2022-12-09T06:46:20.759Z,2.80
2022-12-09T06:48:48.163Z,2.57
2022-12-09T06:51:16.361Z,2.40
2022-12-09T06:53:43.595Z,2.40
2022-12-09T06:56:13.300Z,2.13
2022-12-09T06:58:42.247Z,2.23
2022-12-09T07:01:21.690Z,1.87
2022-12-09T07:03:51.819Z,2.90
2022-12-09T07:06:30.128Z,2.93
2022-12-09T07:09:03.453Z,2.97
2022-12-09T07:11:31.180Z,2.40
2022-12-09T07:13:58.323Z,2.00
2022-12-09T07:16:25.682Z,2.20
2022-12-09T07:18:52.788Z,2.40
2022-12-09T07:21:21.414Z,2.63
2022-12-09T07:23:48.513Z,1.80
2022-12-09T07:26:16.985Z,2.60
2022-12-09T07:28:44.921Z,2.87
2022-12-09T07:31:28.575Z,3.03
2022-12-09T07:33:58.676Z,2.63
2022-12-09T07:36:27.176Z,2.80
2022-12-09T07:39:06.289Z,1.80
2022-12-09T07:41:33.836Z,2.37
2022-12-09T07:44:01.223Z,2.33
2022-12-09T07:46:28.619Z,3.67
2022-12-09T07:48:59.437Z,3.60
2022-12-09T07:51:26.814Z,4.50
2022-12-09T07:53:54.043Z,2.90
2022-12-09T07:56:24.889Z,3.70
2022-12-09T07:58:54.125Z,5.07
2022-12-09T08:01:26.770Z,4.37
2022-12-09T08:03:54.455Z,4.37
2022-12-09T08:06:23.793Z,4.17
2022-12-09T08:08:51.298Z,3.07
2022-12-09T08:11:24.380Z,2.93
2022-12-09T08:13:52.469Z,3.13
2022-12-09T08:16:21.530Z,3.17
2022-12-09T08:18:49.773Z,2.83
2022-12-09T08:21:20.498Z,3.50
2022-12-09T08:23:48.293Z,3.20
2022-12-09T08:26:17.122Z,2.43
2022-12-09T08:28:44.407Z,3.30
2022-12-09T08:31:17.795Z,3.17
2022-12-09T08:33:45.064Z,3.23
2022-12-09T08:36:15.214Z,3.10
2022-12-09T08:38:43.380Z,3.43
2022-12-09T08:41:14.046Z,3.33
2022-12-09T08:43:42.048Z,3.20
2022-12-09T08:46:09.551Z,4.07
2022-12-09T08:48:38.184Z,3.10
2022-12-09T08:51:05.896Z,3.90
2022-12-09T08:53:32.999Z,3.87
2022-12-09T08:56:00.057Z,3.83
2022-12-09T08:58:27.182Z,3.70
2022-12-09T09:00:54.358Z,7.10
2022-12-09T09:03:21.680Z,6.47
2022-12-09T09:05:48.764Z,5.70
2022-12-09T09:08:16.034Z,4.87
2022-12-09T09:10:43.341Z,6.83
2022-12-09T09:13:10.339Z,3.90
2022-12-09T09:15:39.749Z,5.83
2022-12-09T09:18:07.029Z,3.17
2022-12-09T09:20:34.366Z,3.70
2022-12-09T09:23:03.407Z,3.50
2022-12-09T09:25:31.236Z,3.77
2022-12-09T09:27:58.422Z,3.17
2022-12-09T09:30:25.422Z,3.57
2022-12-09T09:32:52.266Z,3.20
2022-12-09T09:35:19.784Z,2.87
2022-12-09T09:37:47.084Z,3.63
2022-12-09T09:40:14.582Z,2.90
2022-12-09T09:42:47.914Z,3.17
2022-12-09T09:45:18.536Z,3.80
2022-12-09T09:48:02.881Z,3.53
2022-12-09T09:50:44.498Z,3.77
2022-12-09T09:53:30.717Z,3.60
2022-12-09T09:56:01.336Z,3.87
2022-12-09T09:58:47.450Z,4.03
2022-12-09T10:01:19.357Z,3.10
2022-12-09T10:04:08.964Z,3.13
2022-12-09T10:06:45.710Z,3.43
2022-12-09T10:09:39.436Z,2.47
2022-12-09T10:12:20.142Z,2.63
2022-12-09T10:15:12.488Z,2.33
2022-12-09T10:18:01.250Z,3.10
2022-12-09T10:20:29.667Z,2.23
2022-12-09T10:23:05.045Z,3.40
2022-12-09T10:25:35.586Z,2.47
2022-12-09T10:28:29.175Z,2.40
2022-12-09T10:30:57.258Z,3.63
2022-12-09T10:33:30.603Z,3.27
2022-12-09T10:35:57.921Z,3.03
2022-12-09T10:38:26.824Z,2.70
2022-12-09T10:41:12.520Z,3.30
2022-12-09T10:43:44.191Z,3.07
2022-12-09T10:46:20.528Z,2.97
2022-12-09T10:48:47.973Z,2.30
2022-12-09T10:51:17.478Z,1.37
2022-12-09T10:53:48.932Z,1.47
2022-12-09T10:56:28.457Z,1.47
2022-12-09T10:59:13.854Z,2.20
2022-12-09T11:01:50.699Z,1.40
2022-12-09T11:04:32.177Z,1.57
2022-12-09T11:07:11.901Z,1.53
2022-12-09T11:09:50.348Z,1.33
2022-12-09T11:12:32.086Z,1.23
2022-12-09T11:15:40.513Z,1.60
2022-12-09T11:18:44.679Z,1.73
2022-12-09T11:21:34.298Z,1.83
2022-12-09T11:24:03.658Z,2.03
2022-12-09T11:26:37.725Z,3.13
2022-12-09T11:29:14.075Z,2.37
2022-12-09T11:31:42.700Z,2.37
2022-12-09T11:34:23.982Z,1.80
2022-12-09T11:36:54.466Z,1.87
2022-12-09T11:39:33.877Z,1.80
2022-12-09T11:42:18.917Z,1.77
2022-12-09T11:44:59.015Z,2.30
2022-12-09T11:47:50.329Z,3.53
2022-12-09T11:50:31.435Z,3.53
2022-12-09T11:53:10.602Z,1.73
2022-12-09T11:55:44.821Z,2.67
2022-12-09T11:58:16.101Z,3.67
2022-12-09T12:01:04.161Z,3.53
2022-12-09T12:03:44.852Z,2.70
2022-12-09T12:06:25.509Z,3.27
2022-12-09T12:09:19.700Z,2.60
2022-12-09T12:12:03.279Z,3.43
2022-12-09T12:14:31.534Z,3.30
2022-12-09T12:17:18.352Z,4.37
2022-12-09T12:19:49.705Z,3.07
2022-12-09T12:22:34.716Z,2.57
2022-12-09T12:25:26.806Z,2.70
2022-12-09T12:27:59.003Z,3.37
2022-12-09T12:30:35.742Z,3.70
2022-12-09T12:36:38.452Z,2.70
2022-12-09T12:39:14.408Z,7.03
2022-12-09T12:41:53.220Z,4.57
2022-12-09T12:44:58.155Z,4.23
2022-12-09T12:47:46.275Z,3.33
2022-12-09T12:50:32.484Z,4.17
2022-12-09T12:53:25.481Z,3.13
2022-12-09T12:56:05.692Z,3.37
2022-12-09T12:59:03.573Z,3.10
2022-12-09T13:01:40.533Z,21.30
2022-12-09T13:04:24.054Z,9.63
2022-12-09T13:06:59.748Z,4.50
2022-12-09T13:09:52.920Z,3.40
2022-12-09T13:12:45.286Z,4.80
2022-12-09T13:15:18.466Z,4.07
2022-12-09T13:17:47.579Z,2.73
2022-12-09T13:20:26.158Z,2.80
2022-12-09T13:23:05.807Z,3.17
2022-12-09T13:25:41.546Z,3.50
2022-12-09T13:28:10.901Z,4.40
2022-12-09T13:30:54.003Z,2.53
2022-12-09T13:33:27.097Z,3.10
2022-12-09T13:36:23.009Z,3.70
2022-12-09T13:38:50.520Z,2.17
2022-12-09T13:41:26.176Z,3.53
2022-12-09T13:43:54.528Z,2.73
2022-12-09T13:46:23.765Z,2.70
2022-12-09T13:48:51.709Z,2.00
2022-12-09T13:51:19.287Z,2.57
2022-12-09T13:53:47.765Z,2.43
2022-12-09T13:56:44.216Z,2.80
2022-12-09T13:59:13.590Z,2.40
2022-12-09T14:02:02.246Z,2.33
2022-12-09T14:04:36.121Z,2.30
2022-12-09T14:07:14.870Z,2.00
2022-12-09T14:09:44.462Z,2.93
2022-12-09T14:12:40.987Z,2.53
2022-12-09T14:15:35.965Z,2.67
2022-12-09T14:18:05.859Z,3.80
2022-12-09T14:20:39.697Z,3.93
2022-12-09T14:23:12.538Z,3.40
2022-12-09T14:25:53.806Z,4.83
2022-12-09T14:28:35.453Z,4.10
2022-12-09T14:31:08.386Z,3.80
2022-12-09T14:33:47.689Z,4.57
2022-12-09T14:36:14.258Z,6.27
2022-12-09T14:39:24.106Z,8.50
2022-12-09T14:42:04.257Z,5.70
2022-12-09T14:45:00.205Z,6.33
2022-12-09T14:47:30.592Z,5.23
2022-12-09T14:50:07.810Z,6.70
2022-12-09T14:52:34.963Z,6.33
2022-12-09T14:55:08.334Z,6.80
2022-12-09T14:57:44.083Z,5.97
2022-12-09T15:00:41.791Z,6.13
2022-12-09T15:03:34.319Z,4.80
2022-12-09T15:06:12.982Z,5.43
2022-12-09T15:08:41.682Z,6.77
2022-12-09T15:11:14.804Z,7.07
2022-12-09T15:13:44.908Z,5.93
2022-12-09T15:16:16.171Z,7.30
2022-12-09T15:18:44.645Z,9.00
2022-12-09T15:21:20.105Z,6.37
2022-12-09T15:23:46.890Z,5.30
2022-12-09T15:26:32.411Z,6.60
2022-12-09T15:29:01.120Z,7.17
2022-12-09T15:31:31.172Z,7.10
2022-12-09T15:34:09.184Z,15.20
2022-12-09T15:36:41.909Z,19.47
2022-12-09T15:39:15.983Z,6.00
2022-12-09T15:42:07.223Z,7.40
2022-12-09T15:45:11.716Z,5.63
2022-12-09T15:47:50.503Z,6.63
2022-12-09T15:50:39.450Z,6.03
2022-12-09T15:53:24.576Z,6.90
2022-12-09T15:56:06.338Z,6.53
2022-12-09T15:58:39.114Z,6.20
2022-12-09T16:01:06.169Z,5.93
2022-12-09T16:03:34.622Z,6.27
2022-12-09T16:06:04.326Z,5.53
2022-12-09T16:08:37.543Z,6.80
2022-12-09T16:11:05.028Z,5.60
2022-12-09T16:13:37.017Z,6.70
2022-12-09T16:16:28.953Z,5.60
2022-12-09T16:18:56.854Z,5.63
2022-12-09T16:21:28.097Z,8.13
2022-12-09T16:23:57.628Z,6.57
2022-12-09T16:26:38.245Z,7.97
2022-12-09T16:29:07.846Z,7.50
2022-12-09T16:31:34.894Z,7.00
2022-12-09T16:34:03.020Z,7.50
2022-12-09T16:36:32.131Z,7.83
2022-12-09T16:39:08.195Z,8.13
2022-12-09T16:44:52.823Z,9.83
2022-12-09T16:47:24.275Z,8.10
2022-12-09T16:49:51.057Z,7.13
2022-12-09T16:52:23.628Z,8.63
2022-12-09T16:54:50.981Z,8.67
2022-12-09T16:57:20.026Z,7.73
2022-12-09T16:59:47.189Z,9.60
2022-12-09T17:02:31.239Z,8.30
2022-12-09T17:04:58.963Z,8.80
2022-12-09T17:07:25.690Z,8.90
2022-12-09T17:09:52.464Z,7.63
2022-12-09T17:12:19.224Z,6.67
2022-12-09T17:14:46.021Z,9.93
2022-12-09T17:17:14.753Z,7.33
2022-12-09T17:19:42.211Z,8.73
2022-12-09T17:22:09.057Z,7.40
2022-12-09T17:24:35.744Z,8.70
2022-12-09T17:27:02.425Z,7.23
2022-12-09T17:29:29.153Z,6.67
2022-12-09T17:31:55.890Z,8.73
2022-12-09T17:34:22.690Z,8.07
2022-12-09T17:36:49.296Z,8.77
2022-12-09T17:39:16.307Z,10.67
2022-12-09T17:41:43.173Z,9.93
2022-12-09T17:44:10.610Z,9.93
2022-12-09T17:46:37.267Z,9.27
2022-12-09T17:49:04.259Z,10.63
2022-12-09T17:51:35.579Z,10.53
2022-12-09T17:54:03.214Z,12.50
2022-12-09T17:56:29.957Z,17.50
2022-12-09T17:59:00.127Z,11.10
2022-12-09T18:01:27.288Z,8.70
2022-12-09T18:04:02.981Z,7.43
2022-12-09T18:06:34.392Z,7.07
2022-12-09T18:09:03.408Z,7.53
2022-12-09T18:11:30.083Z,8.30
2022-12-09T18:13:56.850Z,8.60
2022-12-09T18:16:23.866Z,8.40
2022-12-09T18:18:50.693Z,8.77
2022-12-09T18:21:19.891Z,9.13
2022-12-09T18:23:48.403Z,8.23
2022-12-09T18:26:17.743Z,7.37
2022-12-09T18:28:44.476Z,11.30
2022-12-09T18:31:14.626Z,8.33
2022-12-09T18:33:42.348Z,9.13
2022-12-09T18:36:14.523Z,7.63
2022-12-09T18:38:42.335Z,9.20
2022-12-09T18:41:13.904Z,9.53
2022-12-09T18:43:43.520Z,8.53
2022-12-09T18:46:21.388Z,7.53
2022-12-09T18:49:17.479Z,8.30
2022-12-09T18:51:45.568Z,8.57
2022-12-09T18:54:19.422Z,8.70
2022-12-09T18:56:46.424Z,9.20
2022-12-09T18:59:13.212Z,12.23
2022-12-09T19:01:42.629Z,9.17
2022-12-09T19:04:24.885Z,8.20
2022-12-09T19:06:54.687Z,8.27
2022-12-09T19:09:24.596Z,11.43
2022-12-09T19:11:52.670Z,8.27
2022-12-09T19:14:21.890Z,8.30
2022-12-09T19:16:49.548Z,9.33
2022-12-09T19:19:19.113Z,9.17
2022-12-09T19:21:46.314Z,10.80
2022-12-09T19:24:18.544Z,8.77
2022-12-09T19:26:45.772Z,9.57
2022-12-09T19:29:13.957Z,10.47
2022-12-09T19:31:46.895Z,9.60
2022-12-09T19:34:21.256Z,9.57
2022-12-09T19:36:49.520Z,9.97
2022-12-09T19:39:18.308Z,6.87
2022-12-09T19:41:45.652Z,10.60
2022-12-09T19:44:21.590Z,7.90
2022-12-09T19:46:55.883Z,11.83
2022-12-09T19:49:24.262Z,14.03
2022-12-09T19:51:51.642Z,12.00
2022-12-09T19:54:21.454Z,12.43
2022-12-09T19:56:51.855Z,11.40
2022-12-09T19:59:18.637Z,10.93
2022-12-09T20:01:45.923Z,9.07
2022-12-09T20:04:47.550Z,10.80
2022-12-09T20:07:08.258Z,11.37
2022-12-09T20:09:36.716Z,9.67
2022-12-09T20:12:03.614Z,10.23
2022-12-09T20:14:30.247Z,10.80
2022-12-09T20:16:57.058Z,10.87
2022-12-09T20:19:24.782Z,8.90
2022-12-09T20:21:51.355Z,11.90
2022-12-09T20:24:17.998Z,8.57
2022-12-09T20:26:44.937Z,10.10
2022-12-09T20:29:11.662Z,8.27
2022-12-09T20:31:38.798Z,8.23
2022-12-09T20:34:08.725Z,11.33
2022-12-09T20:36:37.003Z,9.67
2022-12-09T20:39:15.642Z,8.97
2022-12-09T20:41:43.804Z,8.43
2022-12-09T20:44:12.113Z,8.47
2022-12-09T20:46:40.664Z,8.13
2022-12-09T20:49:07.670Z,8.50
2022-12-09T20:51:40.425Z,7.13
2022-12-09T20:54:10.033Z,9.33
2022-12-09T20:56:37.276Z,9.10
2022-12-09T20:59:04.839Z,8.03
2022-12-09T21:01:34.369Z,8.20
2022-12-09T21:04:02.561Z,9.50
2022-12-09T21:06:32.750Z,7.87
2022-12-09T21:09:09.561Z,8.73
2022-12-09T21:11:37.322Z,8.20
2022-12-09T21:14:06.959Z,8.03
2022-12-09T21:16:38.912Z,8.10
2022-12-09T21:19:07.508Z,10.00
2022-12-09T21:21:36.030Z,8.20
2022-12-09T21:24:04.700Z,7.07
2022-12-09T21:26:31.496Z,8.87
2022-12-09T21:29:00.561Z,7.83
2022-12-09T21:31:35.282Z,8.73
2022-12-09T21:34:05.717Z,7.23
2022-12-09T21:36:39.387Z,7.70
2022-12-09T21:39:07.093Z,7.70
2022-12-09T21:41:36.577Z,8.80
2022-12-09T21:44:05.043Z,8.27
2022-12-09T21:46:35.311Z,8.27
2022-12-09T21:49:04.556Z,9.53
2022-12-09T21:51:32.784Z,8.93
2022-12-09T21:53:59.603Z,8.10
2022-12-09T21:56:30.491Z,7.80
2022-12-09T21:58:58.426Z,7.27
2022-12-09T22:01:39.113Z,7.83
2022-12-09T22:04:08.525Z,7.97
2022-12-09T22:06:35.853Z,8.67
2022-12-09T22:09:04.053Z,7.00
2022-12-09T22:11:33.678Z,8.43
2022-12-09T22:14:01.734Z,7.83
2022-12-09T22:16:31.728Z,8.43
2022-12-09T22:18:59.805Z,7.50
2022-12-09T22:21:29.182Z,8.23
2022-12-09T22:24:03.163Z,8.20
2022-12-09T22:26:30.454Z,6.67
2022-12-09T22:29:00.502Z,8.23
2022-12-09T22:31:30.474Z,8.60
2022-12-09T22:34:00.793Z,7.90
2022-12-09T22:36:28.443Z,8.30
2022-12-09T22:38:55.855Z,7.23
2022-12-09T22:41:25.941Z,8.87
2022-12-09T22:43:54.289Z,9.83
2022-12-09T22:46:24.437Z,7.40
2022-12-09T22:48:51.176Z,8.23
2022-12-09T22:51:21.886Z,9.07
2022-12-09T22:53:50.214Z,8.00
2022-12-09T22:56:17.311Z,7.97
2022-12-09T22:58:44.134Z,6.87
2022-12-09T23:01:13.053Z,8.10
2022-12-09T23:03:40.773Z,8.23
2022-12-09T23:06:07.860Z,9.03
2022-12-09T23:08:35.083Z,7.33
2022-12-09T23:11:03.900Z,8.43
2022-12-09T23:13:31.663Z,7.47
2022-12-09T23:16:02.032Z,7.07
2022-12-09T23:18:33.360Z,7.77
2022-12-09T23:21:14.657Z,8.10
2022-12-09T23:23:42.509Z,7.43
2022-12-09T23:26:14.951Z,6.80
2022-12-09T23:28:50.525Z,6.57
2022-12-09T23:31:19.941Z,6.80
2022-12-09T23:33:48.097Z,8.53
2022-12-09T23:36:16.908Z,7.20
2022-12-09T23:38:44.373Z,8.37
2022-12-09T23:41:12.714Z,9.00
2022-12-09T23:43:39.602Z,9.17
2022-12-09T23:46:15.330Z,8.20
2022-12-09T23:48:43.337Z,7.03
2022-12-09T23:51:25.068Z,8.07
2022-12-09T23:53:54.140Z,6.47
2022-12-09T23:56:22.760Z,7.77
2022-12-09T23:58:57.428Z,7.03
